sensor_id;sensor_type;location;lat;lon;timestamp;P1;durP1;ratioP1;P2;durP2;ratioP2
6420;SDS011;3243;50.958;7.012;2022-11-24T00:00:52;20.63;;;6.03;;
6420;SDS011;3243;50.958;7.012;2022-11-24T00:03:19;16.20;;;4.63;;
6420;SDS011;3243;50.958;7.012;2022-11-24T00:05:46;17.10;;;4.80;;
6420;SDS011;3243;50.958;7.012;2022-11-24T00:08:13;19.70;;;4.17;;
6420;SDS011;3243;50.958;7.012;2022-11-24T00:10:39;15.33;;;4.47;;
6420;SDS011;3243;50.958;7.012;2022-11-24T00:13:06;18.70;;;4.27;;
6420;SDS011;3243;50.958;7.012;2022-11-24T00:15:33;17.80;;;4.30;;
6420;SDS011;3243;50.958;7.012;2022-11-24T00:18:00;19.50;;;4.33;;
6420;SDS011;3243;50.958;7.012;2022-11-24T00:20:26;14.33;;;4.27;;
6420;SDS011;3243;50.958;7.012;2022-11-24T00:22:54;18.70;;;4.63;;
6420;SDS011;3243;50.958;7.012;2022-11-24T00:25:21;16.30;;;3.90;;
6420;SDS011;3243;50.958;7.012;2022-11-24T00:27:48;14.53;;;3.70;;
6420;SDS011;3243;50.958;7.012;2022-11-24T00:30:14;13.33;;;4.07;;
6420;SDS011;3243;50.958;7.012;2022-11-24T00:32:41;11.10;;;3.80;;
6420;SDS011;3243;50.958;7.012;2022-11-24T00:35:08;18.37;;;4.37;;
6420;SDS011;3243;50.958;7.012;2022-11-24T00:37:35;12.33;;;3.87;;
6420;SDS011;3243;50.958;7.012;2022-11-24T00:40:02;12.57;;;4.23;;
6420;SDS011;3243;50.958;7.012;2022-11-24T00:42:29;8.13;;;3.57;;
6420;SDS011;3243;50.958;7.012;2022-11-24T00:44:56;9.67;;;3.40;;
6420;SDS011;3243;50.958;7.012;2022-11-24T00:47:23;11.33;;;3.90;;
6420;SDS011;3243;50.958;7.012;2022-11-24T00:49:50;12.40;;;4.10;;
6420;SDS011;3243;50.958;7.012;2022-11-24T00:52:23;11.90;;;4.03;;
6420;SDS011;3243;50.958;7.012;2022-11-24T00:54:49;14.60;;;4.20;;
6420;SDS011;3243;50.958;7.012;2022-11-24T00:57:16;16.17;;;4.77;;
6420;SDS011;3243;50.958;7.012;2022-11-24T00:59:43;14.23;;;4.10;;
6420;SDS011;3243;50.958;7.012;2022-11-24T01:02:10;9.20;;;3.87;;
6420;SDS011;3243;50.958;7.012;2022-11-24T01:04:37;18.70;;;4.57;;
6420;SDS011;3243;50.958;7.012;2022-11-24T01:07:04;12.03;;;3.83;;
6420;SDS011;3243;50.958;7.012;2022-11-24T01:09:31;13.83;;;4.03;;
6420;SDS011;3243;50.958;7.012;2022-11-24T01:11:58;12.70;;;4.27;;
6420;SDS011;3243;50.958;7.012;2022-11-24T01:14:30;11.97;;;3.80;;
6420;SDS011;3243;50.958;7.012;2022-11-24T01:16:58;14.73;;;4.10;;
6420;SDS011;3243;50.958;7.012;2022-11-24T01:19:25;9.87;;;4.03;;
6420;SDS011;3243;50.958;7.012;2022-11-24T01:21:52;13.10;;;3.90;;
6420;SDS011;3243;50.958;7.012;2022-11-24T01:24:19;12.60;;;3.90;;
6420;SDS011;3243;50.958;7.012;2022-11-24T01:26:45;15.03;;;4.43;;
6420;SDS011;3243;50.958;7.012;2022-11-24T01:29:13;9.43;;;3.60;;
6420;SDS011;3243;50.958;7.012;2022-11-24T01:31:40;8.83;;;3.73;;
6420;SDS011;3243;50.958;7.012;2022-11-24T01:34:06;12.17;;;3.97;;
6420;SDS011;3243;50.958;7.012;2022-11-24T01:36:33;10.73;;;3.40;;
6420;SDS011;3243;50.958;7.012;2022-11-24T01:39:00;10.47;;;3.83;;
6420;SDS011;3243;50.958;7.012;2022-11-24T01:41:27;14.77;;;4.80;;
6420;SDS011;3243;50.958;7.012;2022-11-24T01:43:54;11.27;;;3.97;;
6420;SDS011;3243;50.958;7.012;2022-11-24T01:51:34;10.73;;;4.20;;
6420;SDS011;3243;50.958;7.012;2022-11-24T01:54:26;13.10;;;4.10;;
6420;SDS011;3243;50.958;7.012;2022-11-24T01:56:57;13.33;;;3.77;;
6420;SDS011;3243;50.958;7.012;2022-11-24T01:59:27;11.57;;;3.80;;
6420;SDS011;3243;50.958;7.012;2022-11-24T02:01:55;13.60;;;4.00;;
6420;SDS011;3243;50.958;7.012;2022-11-24T02:04:23;7.50;;;3.10;;
6420;SDS011;3243;50.958;7.012;2022-11-24T02:06:56;10.17;;;3.60;;
6420;SDS011;3243;50.958;7.012;2022-11-24T02:09:25;10.10;;;3.70;;
6420;SDS011;3243;50.958;7.012;2022-11-24T02:11:57;12.20;;;3.23;;
6420;SDS011;3243;50.958;7.012;2022-11-24T02:14:25;12.63;;;3.80;;
6420;SDS011;3243;50.958;7.012;2022-11-24T02:16:53;10.40;;;3.10;;
6420;SDS011;3243;50.958;7.012;2022-11-24T02:22:10;10.40;;;3.63;;
6420;SDS011;3243;50.958;7.012;2022-11-24T02:27:15;15.50;;;4.20;;
6420;SDS011;3243;50.958;7.012;2022-11-24T02:29:41;18.97;;;3.70;;
6420;SDS011;3243;50.958;7.012;2022-11-24T02:32:09;12.90;;;3.80;;
6420;SDS011;3243;50.958;7.012;2022-11-24T02:34:37;16.00;;;4.23;;
6420;SDS011;3243;50.958;7.012;2022-11-24T02:37:03;13.17;;;3.57;;
6420;SDS011;3243;50.958;7.012;2022-11-24T02:39:30;13.37;;;4.20;;
6420;SDS011;3243;50.958;7.012;2022-11-24T02:41:58;20.33;;;3.37;;
6420;SDS011;3243;50.958;7.012;2022-11-24T02:44:31;10.03;;;3.23;;
6420;SDS011;3243;50.958;7.012;2022-11-24T02:47:08;13.27;;;3.40;;
6420;SDS011;3243;50.958;7.012;2022-11-24T02:49:36;16.20;;;3.50;;
6420;SDS011;3243;50.958;7.012;2022-11-24T02:52:04;12.30;;;3.43;;
6420;SDS011;3243;50.958;7.012;2022-11-24T02:54:31;16.13;;;3.50;;
6420;SDS011;3243;50.958;7.012;2022-11-24T02:56:59;17.10;;;3.80;;
6420;SDS011;3243;50.958;7.012;2022-11-24T02:59:26;14.00;;;3.93;;
6420;SDS011;3243;50.958;7.012;2022-11-24T03:01:53;14.13;;;3.47;;
6420;SDS011;3243;50.958;7.012;2022-11-24T03:04:20;15.03;;;3.40;;
6420;SDS011;3243;50.958;7.012;2022-11-24T03:06:47;15.30;;;3.70;;
6420;SDS011;3243;50.958;7.012;2022-11-24T03:09:14;13.50;;;3.60;;
6420;SDS011;3243;50.958;7.012;2022-11-24T03:11:41;19.13;;;4.20;;
6420;SDS011;3243;50.958;7.012;2022-11-24T03:14:08;18.37;;;3.80;;
6420;SDS011;3243;50.958;7.012;2022-11-24T03:16:35;14.90;;;3.80;;
6420;SDS011;3243;50.958;7.012;2022-11-24T03:19:02;18.17;;;4.53;;
6420;SDS011;3243;50.958;7.012;2022-11-24T03:21:29;17.70;;;3.40;;
6420;SDS011;3243;50.958;7.012;2022-11-24T03:23:56;16.37;;;3.90;;
6420;SDS011;3243;50.958;7.012;2022-11-24T03:26:23;14.30;;;4.13;;
6420;SDS011;3243;50.958;7.012;2022-11-24T03:28:54;13.40;;;3.57;;
6420;SDS011;3243;50.958;7.012;2022-11-24T03:31:22;12.13;;;3.30;;
6420;SDS011;3243;50.958;7.012;2022-11-24T03:33:50;13.20;;;3.73;;
6420;SDS011;3243;50.958;7.012;2022-11-24T03:36:17;10.30;;;3.00;;
6420;SDS011;3243;50.958;7.012;2022-11-24T03:38:44;17.57;;;3.40;;
6420;SDS011;3243;50.958;7.012;2022-11-24T03:41:11;11.50;;;3.67;;
6420;SDS011;3243;50.958;7.012;2022-11-24T03:43:38;15.90;;;3.30;;
6420;SDS011;3243;50.958;7.012;2022-11-24T03:46:09;14.47;;;3.50;;
6420;SDS011;3243;50.958;7.012;2022-11-24T03:48:37;18.93;;;3.77;;
6420;SDS011;3243;50.958;7.012;2022-11-24T03:51:04;19.50;;;3.67;;
6420;SDS011;3243;50.958;7.012;2022-11-24T03:53:32;18.60;;;4.07;;
6420;SDS011;3243;50.958;7.012;2022-11-24T03:55:59;15.67;;;3.77;;
6420;SDS011;3243;50.958;7.012;2022-11-24T03:58:27;13.90;;;3.70;;
6420;SDS011;3243;50.958;7.012;2022-11-24T04:00:54;16.30;;;3.60;;
6420;SDS011;3243;50.958;7.012;2022-11-24T04:03:21;15.37;;;3.97;;
6420;SDS011;3243;50.958;7.012;2022-11-24T04:05:48;13.97;;;3.93;;
6420;SDS011;3243;50.958;7.012;2022-11-24T04:08:15;11.70;;;3.70;;
6420;SDS011;3243;50.958;7.012;2022-11-24T04:10:42;10.70;;;3.37;;
6420;SDS011;3243;50.958;7.012;2022-11-24T04:13:12;15.37;;;4.00;;
6420;SDS011;3243;50.958;7.012;2022-11-24T04:15:41;13.97;;;3.47;;
6420;SDS011;3243;50.958;7.012;2022-11-24T04:18:09;9.40;;;3.00;;
6420;SDS011;3243;50.958;7.012;2022-11-24T04:20:37;13.60;;;3.47;;
6420;SDS011;3243;50.958;7.012;2022-11-24T04:23:05;16.43;;;3.90;;
6420;SDS011;3243;50.958;7.012;2022-11-24T04:25:32;9.33;;;3.17;;
6420;SDS011;3243;50.958;7.012;2022-11-24T04:27:59;15.10;;;3.80;;
6420;SDS011;3243;50.958;7.012;2022-11-24T04:30:27;12.50;;;3.53;;
6420;SDS011;3243;50.958;7.012;2022-11-24T04:32:54;11.63;;;3.20;;
6420;SDS011;3243;50.958;7.012;2022-11-24T04:35:22;10.63;;;3.37;;
6420;SDS011;3243;50.958;7.012;2022-11-24T04:37:49;8.60;;;3.10;;
6420;SDS011;3243;50.958;7.012;2022-11-24T04:40:16;11.27;;;3.00;;
6420;SDS011;3243;50.958;7.012;2022-11-24T04:42:50;17.63;;;3.83;;
6420;SDS011;3243;50.958;7.012;2022-11-24T04:45:21;12.67;;;3.43;;
6420;SDS011;3243;50.958;7.012;2022-11-24T04:47:48;13.00;;;3.60;;
6420;SDS011;3243;50.958;7.012;2022-11-24T04:50:15;14.10;;;3.93;;
6420;SDS011;3243;50.958;7.012;2022-11-24T04:52:42;16.30;;;3.80;;
6420;SDS011;3243;50.958;7.012;2022-11-24T04:55:09;15.73;;;3.17;;
6420;SDS011;3243;50.958;7.012;2022-11-24T04:57:36;15.77;;;3.47;;
6420;SDS011;3243;50.958;7.012;2022-11-24T05:00:03;13.53;;;3.67;;
6420;SDS011;3243;50.958;7.012;2022-11-24T05:02:31;18.20;;;4.37;;
6420;SDS011;3243;50.958;7.012;2022-11-24T05:04:58;12.60;;;3.23;;
6420;SDS011;3243;50.958;7.012;2022-11-24T05:07:25;10.67;;;3.20;;
6420;SDS011;3243;50.958;7.012;2022-11-24T05:09:52;11.67;;;3.50;;
6420;SDS011;3243;50.958;7.012;2022-11-24T05:12:37;12.23;;;4.13;;
6420;SDS011;3243;50.958;7.012;2022-11-24T05:15:05;16.10;;;5.57;;
6420;SDS011;3243;50.958;7.012;2022-11-24T05:17:37;17.07;;;6.73;;
6420;SDS011;3243;50.958;7.012;2022-11-24T05:20:04;15.07;;;5.50;;
6420;SDS011;3243;50.958;7.012;2022-11-24T05:22:31;20.17;;;6.30;;
6420;SDS011;3243;50.958;7.012;2022-11-24T05:24:58;13.03;;;4.53;;
6420;SDS011;3243;50.958;7.012;2022-11-24T05:27:25;17.23;;;5.20;;
6420;SDS011;3243;50.958;7.012;2022-11-24T05:29:52;16.90;;;5.07;;
6420;SDS011;3243;50.958;7.012;2022-11-24T05:32:19;15.57;;;5.20;;
6420;SDS011;3243;50.958;7.012;2022-11-24T05:34:46;15.97;;;5.50;;
6420;SDS011;3243;50.958;7.012;2022-11-24T05:37:13;15.13;;;5.13;;
6420;SDS011;3243;50.958;7.012;2022-11-24T05:39:39;14.77;;;4.53;;
6420;SDS011;3243;50.958;7.012;2022-11-24T05:42:06;15.10;;;4.97;;
6420;SDS011;3243;50.958;7.012;2022-11-24T05:44:52;17.20;;;4.80;;
6420;SDS011;3243;50.958;7.012;2022-11-24T05:47:19;14.17;;;5.13;;
6420;SDS011;3243;50.958;7.012;2022-11-24T05:49:46;13.03;;;5.17;;
6420;SDS011;3243;50.958;7.012;2022-11-24T05:52:14;17.43;;;4.57;;
6420;SDS011;3243;50.958;7.012;2022-11-24T05:54:41;13.30;;;4.57;;
6420;SDS011;3243;50.958;7.012;2022-11-24T05:57:08;19.50;;;4.90;;
6420;SDS011;3243;50.958;7.012;2022-11-24T05:59:35;20.20;;;3.97;;
6420;SDS011;3243;50.958;7.012;2022-11-24T06:02:02;20.67;;;4.50;;
6420;SDS011;3243;50.958;7.012;2022-11-24T06:04:30;17.97;;;4.30;;
6420;SDS011;3243;50.958;7.012;2022-11-24T06:06:57;25.07;;;5.97;;
6420;SDS011;3243;50.958;7.012;2022-11-24T06:09:23;16.50;;;4.20;;
6420;SDS011;3243;50.958;7.012;2022-11-24T06:11:50;14.03;;;3.63;;
6420;SDS011;3243;50.958;7.012;2022-11-24T06:14:17;14.77;;;3.73;;
6420;SDS011;3243;50.958;7.012;2022-11-24T06:16:43;13.10;;;3.50;;
6420;SDS011;3243;50.958;7.012;2022-11-24T06:19:11;14.83;;;3.30;;
6420;SDS011;3243;50.958;7.012;2022-11-24T06:21:38;14.87;;;3.67;;
6420;SDS011;3243;50.958;7.012;2022-11-24T06:24:05;13.97;;;2.90;;
6420;SDS011;3243;50.958;7.012;2022-11-24T06:26:32;8.53;;;3.10;;
6420;SDS011;3243;50.958;7.012;2022-11-24T06:28:58;13.23;;;3.27;;
6420;SDS011;3243;50.958;7.012;2022-11-24T06:31:25;12.37;;;3.70;;
6420;SDS011;3243;50.958;7.012;2022-11-24T06:33:52;15.43;;;3.43;;
6420;SDS011;3243;50.958;7.012;2022-11-24T06:36:19;14.47;;;3.67;;
6420;SDS011;3243;50.958;7.012;2022-11-24T06:38:47;9.30;;;3.10;;
6420;SDS011;3243;50.958;7.012;2022-11-24T06:41:14;11.23;;;2.93;;
6420;SDS011;3243;50.958;7.012;2022-11-24T06:43:41;13.70;;;3.07;;
6420;SDS011;3243;50.958;7.012;2022-11-24T06:46:09;14.10;;;2.83;;
6420;SDS011;3243;50.958;7.012;2022-11-24T06:48:36;9.73;;;2.90;;
6420;SDS011;3243;50.958;7.012;2022-11-24T06:51:04;11.67;;;3.20;;
6420;SDS011;3243;50.958;7.012;2022-11-24T06:53:33;11.50;;;2.80;;
6420;SDS011;3243;50.958;7.012;2022-11-24T06:56:06;14.30;;;3.27;;
6420;SDS011;3243;50.958;7.012;2022-11-24T06:58:42;10.53;;;2.73;;
6420;SDS011;3243;50.958;7.012;2022-11-24T07:01:18;15.07;;;2.73;;
6420;SDS011;3243;50.958;7.012;2022-11-24T07:03:49;7.70;;;2.50;;
6420;SDS011;3243;50.958;7.012;2022-11-24T07:06:17;8.93;;;2.80;;
6420;SDS011;3243;50.958;7.012;2022-11-24T07:08:45;7.23;;;2.43;;
6420;SDS011;3243;50.958;7.012;2022-11-24T07:11:13;9.50;;;2.50;;
6420;SDS011;3243;50.958;7.012;2022-11-24T07:13:42;5.73;;;2.33;;
6420;SDS011;3243;50.958;7.012;2022-11-24T07:18:37;10.73;;;2.40;;
6420;SDS011;3243;50.958;7.012;2022-11-24T07:21:03;9.03;;;2.50;;
6420;SDS011;3243;50.958;7.012;2022-11-24T07:23:30;5.23;;;2.03;;
6420;SDS011;3243;50.958;7.012;2022-11-24T07:25:57;6.00;;;2.40;;
6420;SDS011;3243;50.958;7.012;2022-11-24T07:28:31;8.10;;;2.50;;
6420;SDS011;3243;50.958;7.012;2022-11-24T07:30:59;8.53;;;2.23;;
6420;SDS011;3243;50.958;7.012;2022-11-24T07:33:41;10.63;;;2.70;;
6420;SDS011;3243;50.958;7.012;2022-11-24T07:36:08;6.87;;;2.90;;
6420;SDS011;3243;50.958;7.012;2022-11-24T07:38:35;5.83;;;2.40;;
6420;SDS011;3243;50.958;7.012;2022-11-24T07:41:05;6.17;;;2.30;;
6420;SDS011;3243;50.958;7.012;2022-11-24T07:43:34;8.30;;;3.00;;
6420;SDS011;3243;50.958;7.012;2022-11-24T07:46:02;12.40;;;3.40;;
6420;SDS011;3243;50.958;7.012;2022-11-24T07:48:30;9.87;;;2.83;;
6420;SDS011;3243;50.958;7.012;2022-11-24T07:50:57;7.37;;;2.83;;
6420;SDS011;3243;50.958;7.012;2022-11-24T07:53:25;9.80;;;2.83;;
6420;SDS011;3243;50.958;7.012;2022-11-24T07:55:53;9.00;;;3.30;;
6420;SDS011;3243;50.958;7.012;2022-11-24T07:58:27;8.53;;;2.87;;
6420;SDS011;3243;50.958;7.012;2022-11-24T08:00:58;6.73;;;2.93;;
6420;SDS011;3243;50.958;7.012;2022-11-24T08:03:26;9.80;;;2.70;;
6420;SDS011;3243;50.958;7.012;2022-11-24T08:05:53;8.67;;;2.97;;
6420;SDS011;3243;50.958;7.012;2022-11-24T08:08:42;6.77;;;2.53;;
6420;SDS011;3243;50.958;7.012;2022-11-24T08:11:10;8.70;;;2.57;;
6420;SDS011;3243;50.958;7.012;2022-11-24T08:13:38;10.57;;;2.80;;
6420;SDS011;3243;50.958;7.012;2022-11-24T08:16:08;8.43;;;3.07;;
6420;SDS011;3243;50.958;7.012;2022-11-24T08:18:37;8.37;;;2.83;;
6420;SDS011;3243;50.958;7.012;2022-11-24T08:21:04;9.67;;;2.90;;
6420;SDS011;3243;50.958;7.012;2022-11-24T08:23:32;7.40;;;2.40;;
6420;SDS011;3243;50.958;7.012;2022-11-24T08:26:04;6.87;;;2.57;;
6420;SDS011;3243;50.958;7.012;2022-11-24T08:28:34;6.13;;;2.30;;
6420;SDS011;3243;50.958;7.012;2022-11-24T08:31:11;8.97;;;2.63;;
6420;SDS011;3243;50.958;7.012;2022-11-24T08:33:40;8.37;;;2.90;;
6420;SDS011;3243;50.958;7.012;2022-11-24T08:36:11;5.83;;;2.37;;
6420;SDS011;3243;50.958;7.012;2022-11-24T08:38:42;7.67;;;2.40;;
6420;SDS011;3243;50.958;7.012;2022-11-24T08:41:11;5.47;;;2.80;;
6420;SDS011;3243;50.958;7.012;2022-11-24T08:43:39;7.23;;;2.60;;
6420;SDS011;3243;50.958;7.012;2022-11-24T08:46:07;9.80;;;2.50;;
6420;SDS011;3243;50.958;7.012;2022-11-24T08:48:35;7.70;;;2.27;;
6420;SDS011;3243;50.958;7.012;2022-11-24T08:51:13;11.33;;;2.40;;
6420;SDS011;3243;50.958;7.012;2022-11-24T08:53:41;7.90;;;2.60;;
6420;SDS011;3243;50.958;7.012;2022-11-24T08:56:09;6.70;;;2.40;;
6420;SDS011;3243;50.958;7.012;2022-11-24T08:58:37;7.77;;;2.60;;
6420;SDS011;3243;50.958;7.012;2022-11-24T09:01:09;8.90;;;2.40;;
6420;SDS011;3243;50.958;7.012;2022-11-24T09:03:37;10.50;;;2.70;;
6420;SDS011;3243;50.958;7.012;2022-11-24T09:06:13;5.57;;;2.17;;
6420;SDS011;3243;50.958;7.012;2022-11-24T09:08:41;6.70;;;2.50;;
6420;SDS011;3243;50.958;7.012;2022-11-24T09:11:11;9.70;;;2.53;;
6420;SDS011;3243;50.958;7.012;2022-11-24T09:13:39;7.53;;;2.83;;
6420;SDS011;3243;50.958;7.012;2022-11-24T09:16:07;11.90;;;3.00;;
6420;SDS011;3243;50.958;7.012;2022-11-24T09:18:38;11.00;;;3.00;;
6420;SDS011;3243;50.958;7.012;2022-11-24T09:21:18;6.77;;;2.90;;
6420;SDS011;3243;50.958;7.012;2022-11-24T09:23:47;11.37;;;3.07;;
6420;SDS011;3243;50.958;7.012;2022-11-24T09:26:19;9.17;;;2.50;;
6420;SDS011;3243;50.958;7.012;2022-11-24T09:28:50;9.73;;;2.93;;
6420;SDS011;3243;50.958;7.012;2022-11-24T09:31:20;6.37;;;2.40;;
6420;SDS011;3243;50.958;7.012;2022-11-24T09:33:49;5.73;;;2.40;;
6420;SDS011;3243;50.958;7.012;2022-11-24T09:36:17;11.57;;;2.70;;
6420;SDS011;3243;50.958;7.012;2022-11-24T09:38:45;10.07;;;2.57;;
6420;SDS011;3243;50.958;7.012;2022-11-24T09:50:05;10.00;;;2.77;;
6420;SDS011;3243;50.958;7.012;2022-11-24T10:01:03;9.53;;;2.40;;
6420;SDS011;3243;50.958;7.012;2022-11-24T10:03:43;5.90;;;2.30;;
6420;SDS011;3243;50.958;7.012;2022-11-24T10:06:18;8.23;;;3.30;;
6420;SDS011;3243;50.958;7.012;2022-11-24T10:11:19;10.00;;;2.60;;
6420;SDS011;3243;50.958;7.012;2022-11-24T10:16:55;9.47;;;2.47;;
6420;SDS011;3243;50.958;7.012;2022-11-24T10:19:37;8.90;;;2.70;;
6420;SDS011;3243;50.958;7.012;2022-11-24T10:27:55;14.23;;;3.23;;
6420;SDS011;3243;50.958;7.012;2022-11-24T10:30:28;7.93;;;2.40;;
6420;SDS011;3243;50.958;7.012;2022-11-24T10:36:03;12.47;;;3.17;;
6420;SDS011;3243;50.958;7.012;2022-11-24T10:38:49;9.67;;;3.00;;
6420;SDS011;3243;50.958;7.012;2022-11-24T10:41:46;11.10;;;3.07;;
6420;SDS011;3243;50.958;7.012;2022-11-24T10:44:14;19.93;;;3.60;;
6420;SDS011;3243;50.958;7.012;2022-11-24T10:46:41;9.40;;;2.60;;
6420;SDS011;3243;50.958;7.012;2022-11-24T10:49:13;11.23;;;3.07;;
6420;SDS011;3243;50.958;7.012;2022-11-24T10:54:53;9.87;;;2.73;;
6420;SDS011;3243;50.958;7.012;2022-11-24T10:57:29;14.43;;;3.10;;
6420;SDS011;3243;50.958;7.012;2022-11-24T10:59:58;8.17;;;2.67;;
6420;SDS011;3243;50.958;7.012;2022-11-24T11:02:27;10.57;;;3.10;;
6420;SDS011;3243;50.958;7.012;2022-11-24T11:05:24;14.90;;;2.90;;
6420;SDS011;3243;50.958;7.012;2022-11-24T11:07:49;11.07;;;2.67;;
6420;SDS011;3243;50.958;7.012;2022-11-24T11:10:17;11.70;;;3.77;;
6420;SDS011;3243;50.958;7.012;2022-11-24T11:12:46;10.63;;;2.63;;
6420;SDS011;3243;50.958;7.012;2022-11-24T11:15:20;13.30;;;3.10;;
6420;SDS011;3243;50.958;7.012;2022-11-24T11:17:49;13.67;;;3.00;;
6420;SDS011;3243;50.958;7.012;2022-11-24T11:20:26;10.43;;;3.10;;
6420;SDS011;3243;50.958;7.012;2022-11-24T11:22:52;10.10;;;2.70;;
6420;SDS011;3243;50.958;7.012;2022-11-24T11:25:22;11.90;;;3.00;;
6420;SDS011;3243;50.958;7.012;2022-11-24T11:31:03;9.03;;;2.77;;
6420;SDS011;3243;50.958;7.012;2022-11-24T11:33:55;9.57;;;2.77;;
6420;SDS011;3243;50.958;7.012;2022-11-24T11:36:33;13.83;;;2.97;;
6420;SDS011;3243;50.958;7.012;2022-11-24T11:39:21;14.03;;;2.80;;
6420;SDS011;3243;50.958;7.012;2022-11-24T11:45:08;8.73;;;2.93;;
6420;SDS011;3243;50.958;7.012;2022-11-24T11:47:49;11.20;;;2.67;;
6420;SDS011;3243;50.958;7.012;2022-11-24T11:53:39;9.63;;;2.90;;
6420;SDS011;3243;50.958;7.012;2022-11-24T12:01:56;11.83;;;2.77;;
6420;SDS011;3243;50.958;7.012;2022-11-24T12:07:25;9.73;;;3.30;;
6420;SDS011;3243;50.958;7.012;2022-11-24T12:26:44;10.10;;;2.80;;
6420;SDS011;3243;50.958;7.012;2022-11-24T12:38:01;18.23;;;3.17;;
6420;SDS011;3243;50.958;7.012;2022-11-24T12:45:57;10.57;;;2.70;;
6420;SDS011;3243;50.958;7.012;2022-11-24T12:48:52;9.20;;;2.67;;
6420;SDS011;3243;50.958;7.012;2022-11-24T12:51:41;12.37;;;3.40;;
6420;SDS011;3243;50.958;7.012;2022-11-24T12:54:12;10.03;;;2.87;;
6420;SDS011;3243;50.958;7.012;2022-11-24T12:56:52;16.33;;;3.57;;
6420;SDS011;3243;50.958;7.012;2022-11-24T13:10:02;16.57;;;3.00;;
6420;SDS011;3243;50.958;7.012;2022-11-24T13:15:25;15.50;;;3.27;;
6420;SDS011;3243;50.958;7.012;2022-11-24T13:18:57;17.17;;;3.23;;
6420;SDS011;3243;50.958;7.012;2022-11-24T13:27:37;12.43;;;3.13;;
6420;SDS011;3243;50.958;7.012;2022-11-24T13:29:48;9.03;;;2.70;;
6420;SDS011;3243;50.958;7.012;2022-11-24T13:40:02;13.37;;;3.13;;
6420;SDS011;3243;50.958;7.012;2022-11-24T13:58:35;8.70;;;3.07;;
6420;SDS011;3243;50.958;7.012;2022-11-24T14:09:32;11.97;;;3.10;;
6420;SDS011;3243;50.958;7.012;2022-11-24T14:14:55;15.80;;;4.10;;
6420;SDS011;3243;50.958;7.012;2022-11-24T14:17:47;12.57;;;3.57;;
6420;SDS011;3243;50.958;7.012;2022-11-24T14:20:15;11.90;;;3.13;;
6420;SDS011;3243;50.958;7.012;2022-11-24T14:22:50;11.50;;;3.03;;
6420;SDS011;3243;50.958;7.012;2022-11-24T14:25:20;11.77;;;2.93;;
6420;SDS011;3243;50.958;7.012;2022-11-24T14:27:55;11.80;;;3.13;;
6420;SDS011;3243;50.958;7.012;2022-11-24T14:30:23;10.97;;;3.20;;
6420;SDS011;3243;50.958;7.012;2022-11-24T14:32:57;15.70;;;3.63;;
6420;SDS011;3243;50.958;7.012;2022-11-24T14:35:27;12.57;;;2.90;;
6420;SDS011;3243;50.958;7.012;2022-11-24T14:37:56;14.47;;;3.07;;
6420;SDS011;3243;50.958;7.012;2022-11-24T14:40:42;10.50;;;2.93;;
6420;SDS011;3243;50.958;7.012;2022-11-24T14:43:31;14.37;;;3.23;;
6420;SDS011;3243;50.958;7.012;2022-11-24T14:45:58;8.43;;;2.80;;
6420;SDS011;3243;50.958;7.012;2022-11-24T14:48:35;11.93;;;2.80;;
6420;SDS011;3243;50.958;7.012;2022-11-24T14:51:13;17.10;;;3.90;;
6420;SDS011;3243;50.958;7.012;2022-11-24T14:53:49;14.37;;;3.60;;
6420;SDS011;3243;50.958;7.012;2022-11-24T14:56:26;12.93;;;3.43;;
6420;SDS011;3243;50.958;7.012;2022-11-24T14:58:59;11.43;;;4.33;;
6420;SDS011;3243;50.958;7.012;2022-11-24T15:09:51;12.20;;;3.60;;
6420;SDS011;3243;50.958;7.012;2022-11-24T15:12:29;11.13;;;3.07;;
6420;SDS011;3243;50.958;7.012;2022-11-24T15:20:30;13.23;;;3.53;;
6420;SDS011;3243;50.958;7.012;2022-11-24T15:25:54;13.73;;;3.43;;
6420;SDS011;3243;50.958;7.012;2022-11-24T15:28:23;14.17;;;3.90;;
6420;SDS011;3243;50.958;7.012;2022-11-24T15:30:51;19.13;;;4.57;;
6420;SDS011;3243;50.958;7.012;2022-11-24T15:33:20;8.80;;;3.30;;
6420;SDS011;3243;50.958;7.012;2022-11-24T15:35:48;12.60;;;4.00;;
6420;SDS011;3243;50.958;7.012;2022-11-24T15:38:15;12.87;;;4.20;;
6420;SDS011;3243;50.958;7.012;2022-11-24T15:40:43;10.87;;;3.60;;
6420;SDS011;3243;50.958;7.012;2022-11-24T15:43:15;13.57;;;3.70;;
6420;SDS011;3243;50.958;7.012;2022-11-24T15:45:46;12.40;;;3.80;;
6420;SDS011;3243;50.958;7.012;2022-11-24T15:48:13;12.93;;;3.23;;
6420;SDS011;3243;50.958;7.012;2022-11-24T15:50:44;15.53;;;3.87;;
6420;SDS011;3243;50.958;7.012;2022-11-24T15:53:14;10.87;;;3.43;;
6420;SDS011;3243;50.958;7.012;2022-11-24T15:55:48;15.47;;;3.50;;
6420;SDS011;3243;50.958;7.012;2022-11-24T15:58:15;11.80;;;4.00;;
6420;SDS011;3243;50.958;7.012;2022-11-24T16:00:43;17.73;;;3.90;;
6420;SDS011;3243;50.958;7.012;2022-11-24T16:03:10;12.70;;;3.97;;
6420;SDS011;3243;50.958;7.012;2022-11-24T16:05:57;13.30;;;3.30;;
6420;SDS011;3243;50.958;7.012;2022-11-24T16:08:24;11.27;;;3.70;;
6420;SDS011;3243;50.958;7.012;2022-11-24T16:10:51;17.20;;;3.87;;
6420;SDS011;3243;50.958;7.012;2022-11-24T16:13:18;13.63;;;3.63;;
6420;SDS011;3243;50.958;7.012;2022-11-24T16:15:45;10.67;;;3.70;;
6420;SDS011;3243;50.958;7.012;2022-11-24T16:18:12;13.17;;;4.20;;
6420;SDS011;3243;50.958;7.012;2022-11-24T16:20:39;16.70;;;6.40;;
6420;SDS011;3243;50.958;7.012;2022-11-24T16:23:06;28.17;;;10.20;;
6420;SDS011;3243;50.958;7.012;2022-11-24T16:25:33;18.83;;;6.70;;
6420;SDS011;3243;50.958;7.012;2022-11-24T16:28:00;13.27;;;4.37;;
6420;SDS011;3243;50.958;7.012;2022-11-24T16:30:27;14.63;;;4.57;;
6420;SDS011;3243;50.958;7.012;2022-11-24T16:32:54;16.27;;;4.23;;
6420;SDS011;3243;50.958;7.012;2022-11-24T16:35:21;12.57;;;4.60;;
6420;SDS011;3243;50.958;7.012;2022-11-24T16:37:48;12.83;;;3.87;;
6420;SDS011;3243;50.958;7.012;2022-11-24T16:40:15;11.73;;;4.40;;
6420;SDS011;3243;50.958;7.012;2022-11-24T16:42:43;11.40;;;4.00;;
6420;SDS011;3243;50.958;7.012;2022-11-24T16:45:11;12.87;;;3.90;;
6420;SDS011;3243;50.958;7.012;2022-11-24T16:47:39;10.67;;;3.70;;
6420;SDS011;3243;50.958;7.012;2022-11-24T16:50:07;14.77;;;4.20;;
6420;SDS011;3243;50.958;7.012;2022-11-24T16:52:35;16.80;;;4.00;;
6420;SDS011;3243;50.958;7.012;2022-11-24T16:55:03;10.93;;;3.73;;
6420;SDS011;3243;50.958;7.012;2022-11-24T16:57:31;14.77;;;3.70;;
6420;SDS011;3243;50.958;7.012;2022-11-24T16:59:58;11.87;;;3.93;;
6420;SDS011;3243;50.958;7.012;2022-11-24T17:02:25;11.03;;;3.93;;
6420;SDS011;3243;50.958;7.012;2022-11-24T17:04:52;18.23;;;4.20;;
6420;SDS011;3243;50.958;7.012;2022-11-24T17:07:19;13.83;;;3.90;;
6420;SDS011;3243;50.958;7.012;2022-11-24T17:09:46;13.90;;;3.70;;
6420;SDS011;3243;50.958;7.012;2022-11-24T17:12:14;13.33;;;3.70;;
6420;SDS011;3243;50.958;7.012;2022-11-24T17:14:40;9.10;;;3.20;;
6420;SDS011;3243;50.958;7.012;2022-11-24T17:17:11;13.70;;;3.70;;
6420;SDS011;3243;50.958;7.012;2022-11-24T17:19:38;12.77;;;3.67;;
6420;SDS011;3243;50.958;7.012;2022-11-24T17:22:05;13.70;;;3.47;;
6420;SDS011;3243;50.958;7.012;2022-11-24T17:24:32;14.33;;;4.37;;
6420;SDS011;3243;50.958;7.012;2022-11-24T17:26:59;9.67;;;3.60;;
6420;SDS011;3243;50.958;7.012;2022-11-24T17:29:26;12.07;;;3.43;;
6420;SDS011;3243;50.958;7.012;2022-11-24T17:31:55;11.60;;;3.50;;
6420;SDS011;3243;50.958;7.012;2022-11-24T17:34:22;14.87;;;4.23;;
6420;SDS011;3243;50.958;7.012;2022-11-24T17:36:49;12.53;;;3.80;;
6420;SDS011;3243;50.958;7.012;2022-11-24T17:39:16;13.27;;;4.40;;
6420;SDS011;3243;50.958;7.012;2022-11-24T17:41:49;17.43;;;4.13;;
6420;SDS011;3243;50.958;7.012;2022-11-24T17:44:17;13.60;;;4.93;;
6420;SDS011;3243;50.958;7.012;2022-11-24T17:46:44;13.50;;;4.67;;
6420;SDS011;3243;50.958;7.012;2022-11-24T17:49:10;12.43;;;4.30;;
6420;SDS011;3243;50.958;7.012;2022-11-24T17:51:38;14.83;;;5.30;;
6420;SDS011;3243;50.958;7.012;2022-11-24T17:54:05;10.43;;;4.27;;
6420;SDS011;3243;50.958;7.012;2022-11-24T17:56:52;11.00;;;4.23;;
6420;SDS011;3243;50.958;7.012;2022-11-24T17:59:19;17.10;;;5.30;;
6420;SDS011;3243;50.958;7.012;2022-11-24T18:01:46;18.53;;;4.67;;
6420;SDS011;3243;50.958;7.012;2022-11-24T18:04:13;10.60;;;4.00;;
6420;SDS011;3243;50.958;7.012;2022-11-24T18:06:40;14.63;;;4.20;;
6420;SDS011;3243;50.958;7.012;2022-11-24T18:09:06;13.73;;;4.07;;